Schneifelwetter: Wetterstation Hallschlag, 537 m . NN
Wetterdaten: Freitag, 10.12.2010
Datum Zeit Temp. A. Feuchte A. Luftdruck Regen Wind Richtung Richtung Sonnenschein Helligkeit T Regen Taupunkt Windchill
10.12.2010 00:11 -1,3 C 97 % 1022 hPa 0,0 l/m 35,3 km/h (5 Bft) W45 270 0 min 0 lux 0,00 min -1,7 C -16,8 C
10.12.2010 00:26 -1,4 C 97 % 1022 hPa 0,0 l/m 34,9 km/h (5 Bft) W22.5 260 0 min 0 lux 0,00 min -1,8 C -16,8 C
10.12.2010 00:41 -1,5 C 97 % 1022 hPa 0,0 l/m 28,0 km/h (4 Bft) W-SW67.5 255 0 min 0 lux 0,00 min -1,9 C -14,9 C
10.12.2010 00:56 -1,6 C 97 % 1022 hPa 0,0 l/m 27,8 km/h (4 Bft) W-SW22.5 255 0 min 0 lux 0,00 min -2,0 C -14,9 C
10.12.2010 01:11 -1,7 C 97 % 1022 hPa 0,0 l/m 29,6 km/h (5 Bft) W45 260 0 min 0 lux 0,00 min -2,1 C -15,7 C
10.12.2010 01:26 -1,6 C 97 % 1022 hPa 0,0 l/m 30,8 km/h (5 Bft) W-SW45 255 0 min 0 lux 0,00 min -2,0 C -15,9 C
10.12.2010 01:41 -1,5 C 97 % 1022 hPa 0,0 l/m 31,8 km/h (5 Bft) W45 260 0 min 0 lux 0,00 min -1,9 C -16,1 C
10.12.2010 01:56 -1,5 C 97 % 1022 hPa 0,0 l/m 30,8 km/h (5 Bft) W45 265 0 min 0 lux 0,00 min -1,9 C -15,8 C
10.12.2010 02:11 -1,5 C 98 % 1022 hPa 0,0 l/m 33,1 km/h (5 Bft) W22.5 265 0 min 0 lux 0,00 min -1,8 C -16,4 C
10.12.2010 02:26 -1,4 C 98 % 1022 hPa 0,0 l/m 28,8 km/h (4 Bft) W45 265 0 min 0 lux 0,00 min -1,7 C -15,0 C
10.12.2010 02:41 -1,4 C 98 % 1022 hPa 0,0 l/m 31,2 km/h (5 Bft) W22.5 265 0 min 0 lux 0,00 min -1,7 C -15,7 C
10.12.2010 02:56 -1,4 C 99 % 1022 hPa 0,3 l/m 29,3 km/h (5 Bft) W45 265 0 min 0 lux 15,00 min -1,5 C -15,1 C
10.12.2010 03:11 -1,4 C 99 % 1022 hPa 0,3 l/m 26,3 km/h (4 Bft) W45 260 0 min 0 lux 15,00 min -1,5 C -14,1 C
10.12.2010 03:26 -1,4 C 99 % 1022 hPa 0,0 l/m 24,0 km/h (4 Bft) W-SW45 255 0 min 0 lux 0,00 min -1,5 C -13,2 C
10.12.2010 03:41 -1,4 C 99 % 1022 hPa 0,3 l/m 18,5 km/h (3 Bft) W-SW45 255 0 min 0 lux 15,00 min -1,5 C -10,7 C
10.12.2010 03:56 -1,3 C 99 % 1022 hPa 0,3 l/m 20,6 km/h (4 Bft) W22.5 260 0 min 0 lux 15,00 min -1,4 C -11,6 C
10.12.2010 04:11 -1,2 C 99 % 1022 hPa 0,3 l/m 23,6 km/h (4 Bft) W22.5 260 0 min 0 lux 15,00 min -1,3 C -12,8 C
10.12.2010 04:26 -1,0 C 99 % 1022 hPa 0,0 l/m 15,7 km/h (3 Bft) W22.5 260 0 min 0 lux 0,00 min -1,1 C -8,6 C
10.12.2010 04:41 -1,0 C 99 % 1022 hPa 0,3 l/m 14,5 km/h (3 Bft) W22.5 265 0 min 0 lux 15,00 min -1,1 C -7,9 C
10.12.2010 04:56 -0,9 C 99 % 1022 hPa 0,0 l/m 15,3 km/h (3 Bft) W22.5 275 0 min 0 lux 0,00 min -1,0 C -8,3 C
10.12.2010 05:11 -0,8 C 99 % 1022 hPa 0,3 l/m 14,6 km/h (3 Bft) W22.5 270 0 min 0 lux 15,00 min -0,9 C -7,7 C
10.12.2010 05:26 -0,6 C 99 % 1023 hPa 0,0 l/m 12,5 km/h (3 Bft) W45 265 0 min 0 lux 0,00 min -0,7 C -6,1 C
10.12.2010 05:41 -0,4 C 99 % 1023 hPa 0,0 l/m 17,8 km/h (3 Bft) W22.5 265 0 min 0 lux 0,00 min -0,5 C -9,1 C
10.12.2010 05:56 -0,2 C 99 % 1023 hPa 0,3 l/m 16,1 km/h (3 Bft) W45 275 0 min 0 lux 15,00 min -0,3 C -7,9 C
10.12.2010 06:11 -0,3 C 99 % 1023 hPa 0,0 l/m 13,1 km/h (3 Bft) NW67.5 305 0 min 0 lux 0,00 min -0,4 C -6,1 C
10.12.2010 06:26 -0,3 C 99 % 1023 hPa 0,0 l/m 11,0 km/h (2 Bft) W-NW67.5 285 0 min 0 lux 0,00 min -0,4 C -4,6 C
10.12.2010 06:41 -0,3 C 99 % 1024 hPa 0,0 l/m 9,4 km/h (2 Bft) NW45 305 0 min 0 lux 0,00 min -0,4 C -3,3 C
10.12.2010 06:56 -0,3 C 98 % 1024 hPa 0,0 l/m 13,1 km/h (3 Bft) W-NW45 300 0 min 0 lux 0,00 min -0,6 C -6,1 C
10.12.2010 07:11 -0,3 C 98 % 1024 hPa 0,0 l/m 14,3 km/h (3 Bft) NW67.5 305 0 min 0 lux 0,00 min -0,6 C -6,9 C
10.12.2010 07:26 -0,4 C 98 % 1024 hPa 0,0 l/m 20,8 km/h (4 Bft) NW45 305 0 min 0 lux 0,00 min -0,7 C -10,5 C
10.12.2010 07:41 -0,4 C 98 % 1025 hPa 0,0 l/m 10,1 km/h (2 Bft) W45 265 0 min 0 lux 0,00 min -0,7 C -4,0 C
10.12.2010 08:01 -0,4 C 98 % 1025 hPa 0,0 l/m 4,6 km/h (1 Bft) N-NW45 340 0 min 0 lux 0,00 min -0,7 C -0,4 C
10.12.2010 08:16 -0,4 C 98 % 1025 hPa 0,0 l/m 15,7 km/h (3 Bft) NW45 320 0 min 91 lux 0,00 min -0,7 C -7,9 C
10.12.2010 08:32 -0,5 C 98 % 1025 hPa 0,0 l/m 0,1 km/h (0 Bft) NW 315 0 min 347 lux 0,00 min -0,8 C -0,5 C
10.12.2010 08:47 -0,5 C 98 % 1025 hPa 0,0 l/m 7,8 km/h (2 Bft) NW45 320 0 min 1,06 klux 0,00 min -0,8 C -2,0 C
10.12.2010 09:02 -0,5 C 98 % 1026 hPa 0,0 l/m 5,3 km/h (1 Bft) W 265 0 min 1,68 klux 0,00 min -0,8 C -0,5 C
10.12.2010 09:16 -0,3 C 98 % 1026 hPa 0,0 l/m 5,5 km/h (1 Bft) W 265 0 min 4,42 klux 0,00 min -0,6 C -0,3 C
10.12.2010 09:31 -0,2 C 98 % 1026 hPa 0,0 l/m 6,3 km/h (2 Bft) W 270 0 min 6,63 klux 0,00 min -0,5 C -0,2 C
10.12.2010 09:46 0,1 C 98 % 1026 hPa 0,0 l/m 8,4 km/h (2 Bft) W-SW 255 0 min 10,4 klux 0,00 min -0,2 C -1,9 C
10.12.2010 10:01 0,3 C 98 % 1026 hPa 0,0 l/m 7,9 km/h (2 Bft) W 260 0 min 10,2 klux 0,00 min 0,0 C -1,2 C
10.12.2010 10:17 0,3 C 98 % 1026 hPa 0,0 l/m 8,2 km/h (2 Bft) W-SW 250 0 min 10,3 klux 0,00 min 0,0 C -1,5 C
10.12.2010 10:32 0,4 C 97 % 1026 hPa 0,0 l/m 8,6 km/h (2 Bft) W-SW 250 0 min 9,3 klux 0,00 min -0,0 C -1,8 C
10.12.2010 10:47 0,7 C 97 % 1026 hPa 0,0 l/m 7,6 km/h (2 Bft) W-SW 250 0 min 11,7 klux 0,00 min 0,3 C -0,5 C
10.12.2010 11:01 0,9 C 97 % 1026 hPa 0,0 l/m 0,0 km/h (0 Bft) W-SW 250 0 min 12,5 klux 0,00 min 0,5 C 0,9 C
10.12.2010 11:16 1,1 C 97 % 1026 hPa 0,0 l/m 0,0 km/h (0 Bft) W-SW 250 0 min 13,3 klux 0,00 min 0,7 C 1,1 C
10.12.2010 11:31 1,0 C 96 % 1026 hPa 0,0 l/m 0,0 km/h (0 Bft) W-SW 250 0 min 9,2 klux 0,00 min 0,4 C 1,0 C
10.12.2010 11:47 1,1 C 96 % 1026 hPa 0,0 l/m 0,0 km/h (0 Bft) W-SW 250 0 min 11,2 klux 0,00 min 0,5 C 1,1 C
10.12.2010 12:02 1,2 C 96 % 1026 hPa 0,0 l/m 0,0 km/h (0 Bft) W-SW 250 0 min 15,9 klux 0,00 min 0,6 C 1,2 C
10.12.2010 12:17 1,3 C 97 % 1026 hPa 0,0 l/m 1,3 km/h (1 Bft) W-SW 245 0 min 16,1 klux 0,00 min 0,9 C 1,3 C
10.12.2010 12:31 1,3 C 97 % 1026 hPa 0,0 l/m 12,1 km/h (2 Bft) W-SW22.5 250 0 min 18,5 klux 0,00 min 0,9 C -3,6 C
10.12.2010 12:46 1,3 C 96 % 1026 hPa 0,0 l/m 14,0 km/h (3 Bft) W-SW 250 0 min 15,0 klux 0,00 min 0,7 C -4,8 C
10.12.2010 13:01 1,2 C 96 % 1026 hPa 0,0 l/m 13,7 km/h (3 Bft) W-SW22.5 255 0 min 14,8 klux 0,00 min 0,6 C -4,7 C
10.12.2010 13:16 1,2 C 96 % 1025 hPa 0,0 l/m 15,1 km/h (3 Bft) W-SW22.5 250 0 min 13,5 klux 0,00 min 0,6 C -5,6 C
10.12.2010 13:32 1,2 C 96 % 1026 hPa 0,0 l/m 17,6 km/h (3 Bft) W-SW22.5 255 0 min 11,8 klux 0,00 min 0,6 C -6,9 C
10.12.2010 13:47 1,0 C 96 % 1026 hPa 0,0 l/m 16,0 km/h (3 Bft) W-SW22.5 255 0 min 10,7 klux 0,00 min 0,4 C -6,3 C
10.12.2010 14:02 0,8 C 96 % 1026 hPa 0,0 l/m 13,4 km/h (3 Bft) W22.5 265 0 min 7,61 klux 0,00 min 0,2 C -5,0 C
10.12.2010 14:16 0,7 C 96 % 1025 hPa 0,0 l/m 16,1 km/h (3 Bft) W22.5 260 0 min 10,2 klux 0,00 min 0,1 C -6,8 C
10.12.2010 14:31 0,7 C 97 % 1025 hPa 0,0 l/m 17,3 km/h (3 Bft) W-SW22.5 255 0 min 8,41 klux 0,00 min 0,3 C -7,4 C
10.12.2010 14:46 0,7 C 97 % 1026 hPa 0,0 l/m 13,9 km/h (3 Bft) W22.5 260 0 min 8,15 klux 0,00 min 0,3 C -5,5 C
10.12.2010 15:02 0,6 C 97 % 1025 hPa 0,0 l/m 13,9 km/h (3 Bft) W-SW22.5 250 0 min 7,66 klux 0,00 min 0,2 C -5,6 C
10.12.2010 15:17 0,5 C 97 % 1025 hPa 0,0 l/m 15,6 km/h (3 Bft) W-SW22.5 245 0 min 8,55 klux 0,00 min 0,1 C -6,7 C
10.12.2010 15:32 0,4 C 97 % 1025 hPa 0,0 l/m 16,3 km/h (3 Bft) W-SW22.5 250 0 min 6,46 klux 0,00 min -0,0 C -7,2 C
10.12.2010 15:46 0,3 C 97 % 1025 hPa 0,0 l/m 18,6 km/h (3 Bft) W22.5 260 0 min 4,36 klux 0,00 min -0,1 C -8,6 C
10.12.2010 16:01 0,1 C 97 % 1025 hPa 0,0 l/m 21,2 km/h (4 Bft) W-SW22.5 250 0 min 1,97 klux 0,00 min -0,3 C -10,0 C
10.12.2010 16:16 0,0 C 98 % 1025 hPa 0,0 l/m 15,4 km/h (3 Bft) W22.5 260 0 min 1,05 klux 0,00 min -0,3 C -7,2 C
10.12.2010 16:31 0,0 C 98 % 1025 hPa 0,0 l/m 21,1 km/h (4 Bft) W-SW22.5 255 0 min 669 lux 0,00 min -0,3 C -10,1 C
10.12.2010 16:47 -0,2 C 98 % 1025 hPa 0,0 l/m 15,3 km/h (3 Bft) W-SW 255 0 min 177 lux 0,00 min -0,5 C -7,4 C
10.12.2010 17:02 -0,2 C 98 % 1025 hPa 0,0 l/m 14,8 km/h (3 Bft) W-SW22.5 250 0 min 53 lux 0,00 min -0,5 C -7,1 C
10.12.2010 17:17 -0,2 C 98 % 1025 hPa 0,0 l/m 15,5 km/h (3 Bft) W-SW22.5 255 0 min 12 lux 0,00 min -0,5 C -7,5 C
10.12.2010 17:31 -0,2 C 98 % 1025 hPa 0,0 l/m 15,9 km/h (3 Bft) W-SW22.5 250 0 min 0 lux 0,00 min -0,5 C -7,8 C
10.12.2010 17:46 -0,2 C 98 % 1025 hPa 0,0 l/m 28,0 km/h (4 Bft) W22.5 260 0 min 0 lux 0,00 min -0,5 C -13,0 C
10.12.2010 18:01 -0,2 C 98 % 1025 hPa 0,0 l/m 31,2 km/h (5 Bft) W45 260 0 min 0 lux 0,00 min -0,5 C -14,0 C
10.12.2010 18:16 -0,2 C 99 % 1025 hPa 0,0 l/m 25,2 km/h (4 Bft) W-SW45 255 0 min 0 lux 0,00 min -0,3 C -12,1 C
10.12.2010 18:32 -0,2 C 99 % 1024 hPa 0,0 l/m 26,3 km/h (4 Bft) W-SW22.5 255 0 min 0 lux 0,00 min -0,3 C -12,5 C
10.12.2010 18:47 -0,2 C 99 % 1025 hPa 0,0 l/m 28,0 km/h (4 Bft) W-SW22.5 255 0 min 0 lux 0,00 min -0,3 C -13,0 C
10.12.2010 19:02 -0,2 C 99 % 1024 hPa 0,0 l/m 22,2 km/h (4 Bft) W-SW45 250 0 min 0 lux 0,00 min -0,3 C -10,9 C
10.12.2010 19:16 -0,2 C 99 % 1024 hPa 0,0 l/m 27,9 km/h (4 Bft) W22.5 260 0 min 0 lux 0,00 min -0,3 C -13,0 C
10.12.2010 19:31 -0,2 C 99 % 1024 hPa 0,0 l/m 25,1 km/h (4 Bft) W45 260 0 min 0 lux 0,00 min -0,3 C -12,0 C
10.12.2010 19:46 -0,2 C 99 % 1024 hPa 0,0 l/m 26,6 km/h (4 Bft) W45 265 0 min 0 lux 0,00 min -0,3 C -12,6 C
10.12.2010 20:02 -0,2 C 99 % 1024 hPa 0,0 l/m 23,6 km/h (4 Bft) W-SW45 250 0 min 0 lux 0,00 min -0,3 C -11,4 C
10.12.2010 20:17 -0,2 C 99 % 1024 hPa 0,0 l/m 19,5 km/h (3 Bft) W-SW22.5 255 0 min 0 lux 0,00 min -0,3 C -9,7 C
10.12.2010 20:32 0,0 C 99 % 1023 hPa 0,0 l/m 25,3 km/h (4 Bft) W-SW22.5 255 0 min 0 lux 0,00 min -0,1 C -11,8 C
10.12.2010 20:46 0,0 C 99 % 1023 hPa 0,0 l/m 23,1 km/h (4 Bft) W-SW22.5 250 0 min 0 lux 0,00 min -0,1 C -11,0 C
10.12.2010 21:01 0,1 C 99 % 1023 hPa 0,0 l/m 29,4 km/h (5 Bft) W-SW22.5 250 0 min 0 lux 0,00 min -0,0 C -13,1 C
10.12.2010 21:16 0,1 C 99 % 1023 hPa 0,0 l/m 23,1 km/h (4 Bft) W-SW22.5 255 0 min 0 lux 0,00 min -0,0 C -10,8 C
10.12.2010 21:31 0,1 C 99 % 1023 hPa 0,0 l/m 28,3 km/h (4 Bft) W45 260 0 min 0 lux 0,00 min -0,0 C -12,7 C
10.12.2010 21:47 0,1 C 99 % 1023 hPa 0,0 l/m 31,7 km/h (5 Bft) W-SW22.5 250 0 min 0 lux 0,00 min -0,0 C -13,8 C
10.12.2010 22:02 0,2 C 99 % 1023 hPa 0,0 l/m 30,2 km/h (5 Bft) W22.5 260 0 min 0 lux 0,00 min 0,1 C -13,2 C
10.12.2010 22:17 0,2 C 99 % 1022 hPa 0,0 l/m 30,0 km/h (5 Bft) W45 260 0 min 0 lux 0,00 min 0,1 C -13,1 C
10.12.2010 22:31 0,2 C 99 % 1022 hPa 0,0 l/m 32,4 km/h (5 Bft) W-SW22.5 255 0 min 0 lux 0,00 min 0,1 C -13,8 C
10.12.2010 22:46 0,2 C 99 % 1022 hPa 0,0 l/m 32,5 km/h (5 Bft) W-SW67.5 250 0 min 0 lux 0,00 min 0,1 C -13,8 C
10.12.2010 23:01 0,2 C 99 % 1022 hPa 0,0 l/m 29,0 km/h (5 Bft) W-SW45 255 0 min 0 lux 0,00 min 0,1 C -12,8 C
10.12.2010 23:16 0,2 C 99 % 1022 hPa 0,0 l/m 26,5 km/h (4 Bft) W45 260 0 min 0 lux 0,00 min 0,1 C -12,0 C
10.12.2010 23:32 0,2 C 99 % 1022 hPa 0,0 l/m 34,3 km/h (5 Bft) W-SW22.5 255 0 min 0 lux 0,00 min 0,1 C -14,3 C
10.12.2010 23:47 0,3 C 99 % 1021 hPa 0,0 l/m 30,2 km/h (5 Bft) W-SW45 255 0 min 0 lux 0,00 min 0,2 C -13,0 C
10.12.2010 23:55 0,2 C 99 % 1021 hPa 0,0 l/m 33,1 km/h (5 Bft) W-SW22.5 250 0 min 0 lux 0,00 min 0,1 C -14,0 C
_ Min-Zeit 01:11 11:31 23:47 - 11:01 - - - - - 01:11 00:26
Minimum _ -1,7 C 96 % 1021 hPa - 0,0 km/h (0 Bft) - - - - - -2,1 C -16,8 C
_ Max-Zeit 12:17 02:56 09:02 02:56 00:11 - - 00:11 12:31 02:56 12:17 12:17
Maximum _ 1,3 C 99 % 1026 hPa 0,3 l/m 35,3 km/h
W (5 Bft)
- - 0 min 18,5 klux 15,00 min 0,9 C 1,3 C
Durchschnitt _ -0,2 C 98 % 1024 hPa #2,4 l/m 19,0 km/h (3 Bft) W-SW - #0 min. 3,06 klux #2:00 h -0,4 C -8,6 C